Kathy Jeanne — WDE2421 — position and weather

sailwx.info

Track history (hours):
 
Tides and Currents Weather Stations Pressure Air Temp Water Temp Dewpoint Dewpoint Depression Visibility Wind Speed Wind Dir Waves Ship Positions

Kathy Jeanne

Owner: MESITICH, RONNIE C, TERMINAL ISLAND, CA. More information available from US FCC via Universal Licensing System and Coast Guard Vessel Documentation Center.

Last reported at 2017-Oct-16 20:14 UTC. Time now 2017-Oct-16 22:37 UTC.
Position N 34°01' W 119°31'.

Length 21 m.

Type: Fishing. MMSI: 367778000.

Date/timePositionNaut miles runAvg speedWind from/ knotsBaromVisibWave heightAir tempDewpointWater temp
2017-Oct-16 20:14N 34°01' W 119°31'1 2.2
2017-Oct-16 19:48N 34°01' W 119°32'0 0.1
2017-Oct-16 17:32N 34°01' W 119°32'0 8.0
2017-Oct-16 17:30N 34°01' W 119°32'9 0.6
2017-Oct-16 01:55N 34°01' W 119°21'0 0.0
2017-Oct-16 01:28N 34°01' W 119°21'0 0.0
2017-Oct-15 23:40N 34°01' W 119°21'0 0.0
2017-Oct-15 23:19N 34°01' W 119°21'0 0.1
2017-Oct-15 22:59N 34°01' W 119°21'3 6.0
2017-Oct-15 22:29N 33°60' W 119°18'5 8.1
2017-Oct-15 21:54N 33°58' W 119°12'4 8.7
2017-Oct-15 21:29N 33°57' W 119°08'4 8.8
2017-Oct-15 21:00N 33°56' W 119°03'5 8.8
2017-Oct-15 20:26N 33°54' W 118°58'4 8.5
2017-Oct-15 19:59N 33°52' W 118°53'4 8.5
2017-Oct-15 19:29N 33°51' W 118°49'5 8.5
2017-Oct-15 18:57N 33°50' W 118°43'  
2017-Oct-10 23:58N 33°19' W 118°25'0 0.0
2017-Oct-10 23:28N 33°19' W 118°25'0 0.0
2017-Oct-10 22:58N 33°19' W 118°25'0 0.0
2017-Oct-10 22:28N 33°19' W 118°25'0 0.0
2017-Oct-10 21:52N 33°19' W 118°25'0 0.0
2017-Oct-10 21:22N 33°19' W 118°25'0 0.0
2017-Oct-10 19:46N 33°19' W 118°25'0 0.0
2017-Oct-10 19:28N 33°19' W 118°25'0 0.0
2017-Oct-10 17:58N 33°19' W 118°25'0 0.0
2017-Oct-10 17:22N 33°19' W 118°25'0 0.1
2017-Oct-10 16:55N 33°19' W 118°25'0 0.3
2017-Oct-10 16:30N 33°19' W 118°25'0 0.8
2017-Oct-10 16:00N 33°19' W 118°25'5 6.8
2017-Oct-10 15:16N 33°18' W 118°19'2 5.9
2017-Oct-10 14:59N 33°20' W 118°18'0 0.0
2017-Oct-10 13:41N 33°20' W 118°18'0 0.0
2017-Oct-10 13:11N 33°20' W 118°18'0 0.0
2017-Oct-10 12:56N 33°20' W 118°18'0 0.0
2017-Oct-10 12:17N 33°20' W 118°18'0 0.0
2017-Oct-10 11:59N 33°20' W 118°18'0 0.0
2017-Oct-10 11:29N 33°20' W 118°18'0 0.0
2017-Oct-10 10:59N 33°20' W 118°18'0 0.0
2017-Oct-10 10:29N 33°20' W 118°18'0 0.0
2017-Oct-10 09:59N 33°20' W 118°18'0 0.0
2017-Oct-10 09:29N 33°20' W 118°18'0 0.0
2017-Oct-10 08:59N 33°20' W 118°18'0 0.0
2017-Oct-10 08:29N 33°20' W 118°18'0 0.0
2017-Oct-10 07:59N 33°20' W 118°18'0 0.5
2017-Oct-10 07:30N 33°19' W 118°18'2 4.7
2017-Oct-10 07:00N 33°18' W 118°20'4 7.5
2017-Oct-10 06:27N 33°19' W 118°25'0 0.7
2017-Oct-10 06:00N 33°19' W 118°25'3 6.6
2017-Oct-10 05:30N 33°18' W 118°21'3 5.7
2017-Oct-10 05:00N 33°19' W 118°18'0 0.7
2017-Oct-10 04:27N 33°19' W 118°18'0 0.6
2017-Oct-10 04:00N 33°19' W 118°18'5 8.8
2017-Oct-10 03:29N 33°24' W 118°18'7 9.3
2017-Oct-10 02:44N 33°31' W 118°16'3 9.0
2017-Oct-10 02:26N 33°33' W 118°16'4 9.1
2017-Oct-10 02:00N 33°37' W 118°15'5 9.0
2017-Oct-10 01:30N 33°42' W 118°15'3 4.7
2017-Oct-10 00:55N 33°44' W 118°16'0 0.0
2017-Oct-10 00:28N 33°44' W 118°16'0 0.0
2017-Oct-09 23:58N 33°44' W 118°16'0 0.0
2017-Oct-09 23:25N 33°44' W 118°16'0 0.0
2017-Oct-09 22:58N 33°44' W 118°16'0 0.0
2017-Oct-09 22:28N 33°44' W 118°16'0 0.0
2017-Oct-09 21:58N 33°44' W 118°16'0 0.0
2017-Oct-09 21:28N 33°44' W 118°16'0 0.0
2017-Oct-09 20:58N 33°44' W 118°16'0 0.0
2017-Oct-09 20:28N 33°44' W 118°16'0 0.0
2017-Oct-09 19:52N 33°44' W 118°16'0 0.0
2017-Oct-09 19:28N 33°44' W 118°16'0 0.0
2017-Oct-09 18:52N 33°44' W 118°16'0 0.0
2017-Oct-09 18:28N 33°44' W 118°16'0 0.0
2017-Oct-09 17:58N 33°44' W 118°16'0 0.0
2017-Oct-09 17:22N 33°44' W 118°16'0 0.0
2017-Oct-09 16:58N 33°44' W 118°16'0 0.0
2017-Oct-09 16:28N 33°44' W 118°16'0 0.0
2017-Oct-09 15:52N 33°44' W 118°16'0 0.0
2017-Oct-09 15:04N 33°44' W 118°16'0 0.0
2017-Oct-09 14:52N 33°44' W 118°16'0 0.0
2017-Oct-09 06:46N 33°44' W 118°16'0 0.0
2017-Oct-09 03:58N 33°44' W 118°16'0 0.0
2017-Oct-09 03:10N 33°44' W 118°16'0 0.0
2017-Oct-09 02:52N 33°44' W 118°16'0 0.0
2017-Oct-09 02:22N 33°44' W 118°16'0 0.0
2017-Oct-09 01:28N 33°44' W 118°16'0 0.0
2017-Oct-08 23:22N 33°44' W 118°16'0 0.0
2017-Oct-08 22:19N 33°44' W 118°16'0 0.0
2017-Oct-08 17:28N 33°44' W 118°16'0 0.0
2017-Oct-08 16:52N 33°44' W 118°16'0 0.0
2017-Oct-08 15:34N 33°44' W 118°16'0 0.0
2017-Oct-08 15:28N 33°44' W 118°16'0 0.0
2017-Oct-08 14:58N 33°44' W 118°16'0 0.0
2017-Oct-08 14:07N 33°44' W 118°16'0 0.0
2017-Oct-08 13:55N 33°44' W 118°16'0 0.0
2017-Oct-08 11:34N 33°44' W 118°16'0 0.0
2017-Oct-08 11:22N 33°44' W 118°16'0 0.0
2017-Oct-08 10:58N 33°44' W 118°16'0 0.0
2017-Oct-08 10:01N 33°44' W 118°16'0 0.0
2017-Oct-08 09:52N 33°44' W 118°16'0 0.0
2017-Oct-08 08:16N 33°44' W 118°16'0 0.0
2017-Oct-08 07:58N 33°44' W 118°16'0 0.0
2017-Oct-08 07:28N 33°44' W 118°16'0 0.0
2017-Oct-08 06:52N 33°44' W 118°16'0 0.0
2017-Oct-08 06:28N 33°44' W 118°16'0 0.0
2017-Oct-08 05:58N 33°44' W 118°16'0 0.0
2017-Oct-08 05:28N 33°44' W 118°16'0 0.0
2017-Oct-08 04:40N 33°44' W 118°16'0 0.0
2017-Oct-08 04:28N 33°44' W 118°16'0 0.0
2017-Oct-08 03:58N 33°44' W 118°16'0 0.0
2017-Oct-08 03:28N 33°44' W 118°16'0 0.0
2017-Oct-08 02:46N 33°44' W 118°16'0 0.0
2017-Oct-08 02:22N 33°44' W 118°16'0 0.0
2017-Oct-08 01:58N 33°44' W 118°16'0 0.0
2017-Oct-08 01:28N 33°44' W 118°16'0 0.0
2017-Oct-08 00:58N 33°44' W 118°16'0 0.0
2017-Oct-08 00:28N 33°44' W 118°16'0 0.0
2017-Oct-07 23:58N 33°44' W 118°16'0 0.0
2017-Oct-07 23:28N 33°44' W 118°16'0 0.0
2017-Oct-07 22:58N 33°44' W 118°16'0 0.0
2017-Oct-07 22:16N 33°44' W 118°16'0 0.0
2017-Oct-07 21:46N 33°44' W 118°16'0 0.0
2017-Oct-07 21:28N 33°44' W 118°16'0 0.0
2017-Oct-07 20:58N 33°44' W 118°16'0 0.0
2017-Oct-07 20:28N 33°44' W 118°16'0 0.0
2017-Oct-07 19:58N 33°44' W 118°16'0 0.0
2017-Oct-07 19:22N 33°44' W 118°16'0 0.0
2017-Oct-07 18:58N 33°44' W 118°16'0 0.0
2017-Oct-07 18:28N 33°44' W 118°16'0 0.0
2017-Oct-07 17:58N 33°44' W 118°16'0 0.0
2017-Oct-07 17:28N 33°44' W 118°16'0 0.0
2017-Oct-07 16:58N 33°44' W 118°16'0 0.0
2017-Oct-07 16:16N 33°44' W 118°16'0 0.0
2017-Oct-07 15:46N 33°44' W 118°16'0 0.0
2017-Oct-07 15:22N 33°44' W 118°16'0 0.0
2017-Oct-07 14:58N 33°44' W 118°16'0 0.0
2017-Oct-07 14:28N 33°44' W 118°16'0 0.0
2017-Oct-07 12:19N 33°44' W 118°16'0 0.0
2017-Oct-07 11:52N 33°44' W 118°16'0 0.0
2017-Oct-07 11:07N 33°44' W 118°16'0 0.0
2017-Oct-07 10:55N 33°44' W 118°16'0 0.0
2017-Oct-07 10:28N 33°44' W 118°16'0 0.0
2017-Oct-07 09:58N 33°44' W 118°16'0 0.0
2017-Oct-07 09:25N 33°44' W 118°16'0 0.0
2017-Oct-07 08:52N 33°44' W 118°16'0 0.0
2017-Oct-07 08:22N 33°44' W 118°16'0 0.0
2017-Oct-07 06:16N 33°44' W 118°16'0 0.0
2017-Oct-07 05:58N 33°44' W 118°16'0 0.0
2017-Oct-07 05:28N 33°44' W 118°16'0 0.0
2017-Oct-07 04:58N 33°44' W 118°16'0 0.0
2017-Oct-07 04:28N 33°44' W 118°16'0 0.0
2017-Oct-07 03:58N 33°44' W 118°16'0 0.0
2017-Oct-07 03:28N 33°44' W 118°16'0 0.0
2017-Oct-07 02:58N 33°44' W 118°16'0 0.0
2017-Oct-07 02:28N 33°44' W 118°16'0 0.0
2017-Oct-07 01:58N 33°44' W 118°16'0 0.0
2017-Oct-07 01:28N 33°44' W 118°16'0 0.0
2017-Oct-07 00:58N 33°44' W 118°16'0 0.0
2017-Oct-06 23:10N 33°44' W 118°16'0 0.0
2017-Oct-06 22:58N 33°44' W 118°16'0 0.0
2017-Oct-06 22:22N 33°44' W 118°16'0 0.0
2017-Oct-06 21:58N 33°44' W 118°16'0 0.0
2017-Oct-06 21:22N 33°44' W 118°16'0 0.0
2017-Oct-06 20:46N 33°44' W 118°16'  
Track history (hours):
 
Tides and Currents Weather Stations Pressure Air Temp Water Temp Dewpoint Dewpoint Depression Visibility Wind Speed Wind Dir Waves Ship Positions

Kathy Jeanne

Owner: MESITICH, RONNIE C, TERMINAL ISLAND, CA. More information available from US FCC via Universal Licensing System and Coast Guard Vessel Documentation Center.

Last reported at 2017-Oct-16 20:14 UTC. Time now 2017-Oct-16 22:37 UTC.
Position N 34°01' W 119°31'.

Length 21 m.

Type: Fishing. MMSI: 367778000.

Date/timePositionNaut miles runAvg speedWind from/ knotsBaromVisibWave heightAir tempDewpointWater temp
2017-Oct-16 20:14N 34°01' W 119°31'1 2.2
2017-Oct-16 19:48N 34°01' W 119°32'0 0.1
2017-Oct-16 17:32N 34°01' W 119°32'0 8.0
2017-Oct-16 17:30N 34°01' W 119°32'9 0.6
2017-Oct-16 01:55N 34°01' W 119°21'0 0.0
2017-Oct-16 01:28N 34°01' W 119°21'0 0.0
2017-Oct-15 23:40N 34°01' W 119°21'0 0.0
2017-Oct-15 23:19N 34°01' W 119°21'0 0.1
2017-Oct-15 22:59N 34°01' W 119°21'3 6.0
2017-Oct-15 22:29N 33°60' W 119°18'5 8.1
2017-Oct-15 21:54N 33°58' W 119°12'4 8.7
2017-Oct-15 21:29N 33°57' W 119°08'4 8.8
2017-Oct-15 21:00N 33°56' W 119°03'5 8.8
2017-Oct-15 20:26N 33°54' W 118°58'4 8.5
2017-Oct-15 19:59N 33°52' W 118°53'4 8.5
2017-Oct-15 19:29N 33°51' W 118°49'5 8.5
2017-Oct-15 18:57N 33°50' W 118°43'  
2017-Oct-10 23:58N 33°19' W 118°25'0 0.0
2017-Oct-10 23:28N 33°19' W 118°25'0 0.0
2017-Oct-10 22:58N 33°19' W 118°25'0 0.0
2017-Oct-10 22:28N 33°19' W 118°25'0 0.0
2017-Oct-10 21:52N 33°19' W 118°25'0 0.0
2017-Oct-10 21:22N 33°19' W 118°25'0 0.0
2017-Oct-10 19:46N 33°19' W 118°25'0 0.0
2017-Oct-10 19:28N 33°19' W 118°25'0 0.0
2017-Oct-10 17:58N 33°19' W 118°25'0 0.0
2017-Oct-10 17:22N 33°19' W 118°25'0 0.1
2017-Oct-10 16:55N 33°19' W 118°25'0 0.3
2017-Oct-10 16:30N 33°19' W 118°25'0 0.8
2017-Oct-10 16:00N 33°19' W 118°25'5 6.8
2017-Oct-10 15:16N 33°18' W 118°19'2 5.9
2017-Oct-10 14:59N 33°20' W 118°18'0 0.0
2017-Oct-10 13:41N 33°20' W 118°18'0 0.0
2017-Oct-10 13:11N 33°20' W 118°18'0 0.0
2017-Oct-10 12:56N 33°20' W 118°18'0 0.0
2017-Oct-10 12:17N 33°20' W 118°18'0 0.0
2017-Oct-10 11:59N 33°20' W 118°18'0 0.0
2017-Oct-10 11:29N 33°20' W 118°18'0 0.0
2017-Oct-10 10:59N 33°20' W 118°18'0 0.0
2017-Oct-10 10:29N 33°20' W 118°18'0 0.0
2017-Oct-10 09:59N 33°20' W 118°18'0 0.0
2017-Oct-10 09:29N 33°20' W 118°18'0 0.0
2017-Oct-10 08:59N 33°20' W 118°18'0 0.0
2017-Oct-10 08:29N 33°20' W 118°18'0 0.0
2017-Oct-10 07:59N 33°20' W 118°18'0 0.5
2017-Oct-10 07:30N 33°19' W 118°18'2 4.7
2017-Oct-10 07:00N 33°18' W 118°20'4 7.5
2017-Oct-10 06:27N 33°19' W 118°25'0 0.7
2017-Oct-10 06:00N 33°19' W 118°25'3 6.6
2017-Oct-10 05:30N 33°18' W 118°21'3 5.7
2017-Oct-10 05:00N 33°19' W 118°18'0 0.7
2017-Oct-10 04:27N 33°19' W 118°18'0 0.6
2017-Oct-10 04:00N 33°19' W 118°18'5 8.8
2017-Oct-10 03:29N 33°24' W 118°18'7 9.3
2017-Oct-10 02:44N 33°31' W 118°16'3 9.0
2017-Oct-10 02:26N 33°33' W 118°16'4 9.1
2017-Oct-10 02:00N 33°37' W 118°15'5 9.0
2017-Oct-10 01:30N 33°42' W 118°15'3 4.7
2017-Oct-10 00:55N 33°44' W 118°16'0 0.0
2017-Oct-10 00:28N 33°44' W 118°16'0 0.0
2017-Oct-09 23:58N 33°44' W 118°16'0 0.0
2017-Oct-09 23:25N 33°44' W 118°16'0 0.0
2017-Oct-09 22:58N 33°44' W 118°16'0 0.0
2017-Oct-09 22:28N 33°44' W 118°16'0 0.0
2017-Oct-09 21:58N 33°44' W 118°16'0 0.0
2017-Oct-09 21:28N 33°44' W 118°16'0 0.0
2017-Oct-09 20:58N 33°44' W 118°16'0 0.0
2017-Oct-09 20:28N 33°44' W 118°16'0 0.0
2017-Oct-09 19:52N 33°44' W 118°16'0 0.0
2017-Oct-09 19:28N 33°44' W 118°16'0 0.0
2017-Oct-09 18:52N 33°44' W 118°16'0 0.0
2017-Oct-09 18:28N 33°44' W 118°16'0 0.0
2017-Oct-09 17:58N 33°44' W 118°16'0 0.0
2017-Oct-09 17:22N 33°44' W 118°16'0 0.0
2017-Oct-09 16:58N 33°44' W 118°16'0 0.0
2017-Oct-09 16:28N 33°44' W 118°16'0 0.0
2017-Oct-09 15:52N 33°44' W 118°16'0 0.0
2017-Oct-09 15:04N 33°44' W 118°16'0 0.0
2017-Oct-09 14:52N 33°44' W 118°16'0 0.0
2017-Oct-09 06:46N 33°44' W 118°16'0 0.0
2017-Oct-09 03:58N 33°44' W 118°16'0 0.0
2017-Oct-09 03:10N 33°44' W 118°16'0 0.0
2017-Oct-09 02:52N 33°44' W 118°16'0 0.0
2017-Oct-09 02:22N 33°44' W 118°16'0 0.0
2017-Oct-09 01:28N 33°44' W 118°16'0 0.0
2017-Oct-08 23:22N 33°44' W 118°16'0 0.0
2017-Oct-08 22:19N 33°44' W 118°16'0 0.0
2017-Oct-08 17:28N 33°44' W 118°16'0 0.0
2017-Oct-08 16:52N 33°44' W 118°16'0 0.0
2017-Oct-08 15:34N 33°44' W 118°16'0 0.0
2017-Oct-08 15:28N 33°44' W 118°16'0 0.0
2017-Oct-08 14:58N 33°44' W 118°16'0 0.0
2017-Oct-08 14:07N 33°44' W 118°16'0 0.0
2017-Oct-08 13:55N 33°44' W 118°16'0 0.0
2017-Oct-08 11:34N 33°44' W 118°16'0 0.0
2017-Oct-08 11:22N 33°44' W 118°16'0 0.0
2017-Oct-08 10:58N 33°44' W 118°16'0 0.0
2017-Oct-08 10:01N 33°44' W 118°16'0 0.0
2017-Oct-08 09:52N 33°44' W 118°16'0 0.0
2017-Oct-08 08:16N 33°44' W 118°16'0 0.0
2017-Oct-08 07:58N 33°44' W 118°16'0 0.0
2017-Oct-08 07:28N 33°44' W 118°16'0 0.0
2017-Oct-08 06:52N 33°44' W 118°16'0 0.0
2017-Oct-08 06:28N 33°44' W 118°16'0 0.0
2017-Oct-08 05:58N 33°44' W 118°16'0 0.0
2017-Oct-08 05:28N 33°44' W 118°16'0 0.0
2017-Oct-08 04:40N 33°44' W 118°16'0 0.0
2017-Oct-08 04:28N 33°44' W 118°16'0 0.0
2017-Oct-08 03:58N 33°44' W 118°16'0 0.0
2017-Oct-08 03:28N 33°44' W 118°16'0 0.0
2017-Oct-08 02:46N 33°44' W 118°16'0 0.0
2017-Oct-08 02:22N 33°44' W 118°16'0 0.0
2017-Oct-08 01:58N 33°44' W 118°16'0 0.0
2017-Oct-08 01:28N 33°44' W 118°16'0 0.0
2017-Oct-08 00:58N 33°44' W 118°16'0 0.0
2017-Oct-08 00:28N 33°44' W 118°16'0 0.0
2017-Oct-07 23:58N 33°44' W 118°16'0 0.0
2017-Oct-07 23:28N 33°44' W 118°16'0 0.0
2017-Oct-07 22:58N 33°44' W 118°16'0 0.0
2017-Oct-07 22:16N 33°44' W 118°16'0 0.0
2017-Oct-07 21:46N 33°44' W 118°16'0 0.0
2017-Oct-07 21:28N 33°44' W 118°16'0 0.0
2017-Oct-07 20:58N 33°44' W 118°16'0 0.0
2017-Oct-07 20:28N 33°44' W 118°16'0 0.0
2017-Oct-07 19:58N 33°44' W 118°16'0 0.0
2017-Oct-07 19:22N 33°44' W 118°16'0 0.0
2017-Oct-07 18:58N 33°44' W 118°16'0 0.0
2017-Oct-07 18:28N 33°44' W 118°16'0 0.0
2017-Oct-07 17:58N 33°44' W 118°16'0 0.0
2017-Oct-07 17:28N 33°44' W 118°16'0 0.0
2017-Oct-07 16:58N 33°44' W 118°16'0 0.0
2017-Oct-07 16:16N 33°44' W 118°16'0 0.0
2017-Oct-07 15:46N 33°44' W 118°16'0 0.0
2017-Oct-07 15:22N 33°44' W 118°16'0 0.0
2017-Oct-07 14:58N 33°44' W 118°16'0 0.0
2017-Oct-07 14:28N 33°44' W 118°16'0 0.0
2017-Oct-07 12:19N 33°44' W 118°16'0 0.0
2017-Oct-07 11:52N 33°44' W 118°16'0 0.0
2017-Oct-07 11:07N 33°44' W 118°16'0 0.0
2017-Oct-07 10:55N 33°44' W 118°16'0 0.0
2017-Oct-07 10:28N 33°44' W 118°16'0 0.0
2017-Oct-07 09:58N 33°44' W 118°16'0 0.0
2017-Oct-07 09:25N 33°44' W 118°16'0 0.0
2017-Oct-07 08:52N 33°44' W 118°16'0 0.0
2017-Oct-07 08:22N 33°44' W 118°16'0 0.0
2017-Oct-07 06:16N 33°44' W 118°16'0 0.0
2017-Oct-07 05:58N 33°44' W 118°16'0 0.0
2017-Oct-07 05:28N 33°44' W 118°16'0 0.0
2017-Oct-07 04:58N 33°44' W 118°16'0 0.0
2017-Oct-07 04:28N 33°44' W 118°16'0 0.0
2017-Oct-07 03:58N 33°44' W 118°16'0 0.0
2017-Oct-07 03:28N 33°44' W 118°16'0 0.0
2017-Oct-07 02:58N 33°44' W 118°16'0 0.0
2017-Oct-07 02:28N 33°44' W 118°16'0 0.0
2017-Oct-07 01:58N 33°44' W 118°16'0 0.0
2017-Oct-07 01:28N 33°44' W 118°16'0 0.0
2017-Oct-07 00:58N 33°44' W 118°16'0 0.0
2017-Oct-06 23:10N 33°44' W 118°16'0 0.0
2017-Oct-06 22:58N 33°44' W 118°16'0 0.0
2017-Oct-06 22:22N 33°44' W 118°16'0 0.0
2017-Oct-06 21:58N 33°44' W 118°16'0 0.0
2017-Oct-06 21:22N 33°44' W 118°16'0 0.0
2017-Oct-06 20:46N 33°44' W 118°16'  

Dump ship's entire track history